Time,TemperatureF,DewpointF,PressureIn,WindDirection,WindDirectionDegrees,WindSpeedMPH,WindSpeedGustMPH,Humidity,HourlyPrecipIn,Conditions,Clouds,dailyrainin,SoftwareType,DateUTC
2013-10-17 00:03:00,59.9,59.6,29.88,South,172,0.0,0.0,99,0.00,,,0.00,LWC V2.00 B2112,2013-10-17 04:03:00,
2013-10-17 00:08:00,59.8,59.5,29.88,South,172,0.0,0.0,99,0.00,,,0.00,LWC V2.00 B2112,2013-10-17 04:08:00,
2013-10-17 00:13:00,59.8,59.5,29.88,South,172,0.0,0.0,99,0.00,,,0.00,LWC V2.00 B2112,2013-10-17 04:13:00,
2013-10-17 00:18:00,59.6,59.3,29.88,South,172,0.0,0.0,99,0.00,,,0.00,LWC V2.00 B2112,2013-10-17 04:18:00,
2013-10-17 00:23:00,59.8,59.5,29.88,South,172,0.0,0.0,99,0.00,,,0.00,LWC V2.00 B2112,2013-10-17 04:23:00,
2013-10-17 00:28:00,59.9,59.6,29.88,South,172,0.0,0.0,99,0.00,,,0.00,LWC V2.00 B2112,2013-10-17 04:28:00,
2013-10-17 00:33:00,59.9,59.6,29.88,South,172,0.0,0.0,99,0.00,,,0.00,LWC V2.00 B2112,2013-10-17 04:33:00,
2013-10-17 00:38:00,59.9,59.6,29.88,South,172,0.0,0.0,99,0.00,,,0.00,LWC V2.00 B2112,2013-10-17 04:38:00,
2013-10-17 00:43:00,60.1,59.8,29.87,South,172,0.0,0.0,99,0.00,,,0.00,LWC V2.00 B2112,2013-10-17 04:43:00,
2013-10-17 00:48:00,60.1,59.8,29.87,South,172,0.0,0.0,99,0.00,,,0.00,LWC V2.00 B2112,2013-10-17 04:48:00,
2013-10-17 00:53:00,60.1,59.8,29.87,South,172,0.0,0.0,99,0.00,,,0.00,LWC V2.00 B2112,2013-10-17 04:53:00,
2013-10-17 00:58:00,60.2,59.9,29.87,South,172,0.0,0.0,99,0.00,,,0.00,LWC V2.00 B2112,2013-10-17 04:58:00,
2013-10-17 01:03:00,60.2,59.9,29.87,South,172,0.0,0.0,99,0.00,,,0.00,LWC V2.00 B2112,2013-10-17 05:03:00,
2013-10-17 01:08:00,60.2,59.9,29.87,South,172,0.0,0.0,99,0.00,,,0.00,LWC V2.00 B2112,2013-10-17 05:08:00,
2013-10-17 01:13:00,60.2,60.2,29.88,South,172,0.0,0.0,100,0.00,,,0.00,LWC V2.00 B2112,2013-10-17 05:13:00,
2013-10-17 01:18:00,60.2,59.9,29.88,South,172,0.0,0.0,99,0.00,,,0.00,LWC V2.00 B2112,2013-10-17 05:18:00,
2013-10-17 01:23:00,60.1,59.8,29.88,South,172,0.0,0.0,99,0.00,,,0.00,LWC V2.00 B2112,2013-10-17 05:23:00,
2013-10-17 01:28:00,60.2,59.9,29.88,South,172,0.0,0.0,99,0.00,,,0.00,LWC V2.00 B2112,2013-10-17 05:28:00,
2013-10-17 01:33:00,60.4,60.4,29.88,South,172,0.0,0.0,100,0.00,,,0.00,LWC V2.00 B2112,2013-10-17 05:33:00,
2013-10-17 01:38:00,60.5,60.5,29.88,South,172,0.0,0.0,100,0.00,,,0.00,LWC V2.00 B2112,2013-10-17 05:38:00,
2013-10-17 01:43:00,60.5,60.5,29.87,South,172,0.0,0.0,100,0.00,,,0.00,LWC V2.00 B2112,2013-10-17 05:43:00,
2013-10-17 01:48:00,60.7,60.7,29.87,South,172,0.0,0.0,100,0.00,,,0.00,LWC V2.00 B2112,2013-10-17 05:48:00,
2013-10-17 01:53:00,60.7,60.7,29.87,South,172,0.0,0.0,100,0.00,,,0.00,LWC V2.00 B2112,2013-10-17 05:53:00,
2013-10-17 01:58:00,60.7,60.7,29.88,South,172,0.0,0.0,100,0.00,,,0.00,LWC V2.00 B2112,2013-10-17 05:58:00,
2013-10-17 02:03:00,60.9,60.9,29.88,South,172,0.0,0.0,100,0.00,,,0.00,LWC V2.00 B2112,2013-10-17 06:03:00,
2013-10-17 02:08:00,60.9,60.9,29.88,South,172,0.0,0.0,100,0.00,,,0.00,LWC V2.00 B2112,2013-10-17 06:08:00,
2013-10-17 02:13:00,60.9,60.9,29.87,South,172,0.0,0.0,100,0.00,,,0.00,LWC V2.00 B2112,2013-10-17 06:13:00,
2013-10-17 02:18:00,60.7,60.7,29.87,South,172,0.0,0.0,100,0.00,,,0.00,LWC V2.00 B2112,2013-10-17 06:18:00,
2013-10-17 02:23:00,60.7,60.7,29.87,South,172,0.0,0.0,100,0.00,,,0.00,LWC V2.00 B2112,2013-10-17 06:23:00,
2013-10-17 02:28:00,60.7,60.7,29.87,South,172,0.0,0.0,100,0.00,,,0.00,LWC V2.00 B2112,2013-10-17 06:28:00,
2013-10-17 02:33:00,60.7,60.7,29.87,South,172,0.0,0.0,100,0.00,,,0.00,LWC V2.00 B2112,2013-10-17 06:33:00,
2013-10-17 02:38:00,60.5,60.5,29.87,South,172,0.0,0.0,100,0.00,,,0.00,LWC V2.00 B2112,2013-10-17 06:38:00,
2013-10-17 02:43:00,60.5,60.5,29.85,South,172,0.0,0.0,100,0.00,,,0.00,LWC V2.00 B2112,2013-10-17 06:43:00,
2013-10-17 02:48:00,60.5,60.5,29.85,South,172,0.0,0.0,100,0.00,,,0.00,LWC V2.00 B2112,2013-10-17 06:48:00,
2013-10-17 02:53:00,60.5,60.5,29.85,South,172,0.0,0.0,100,0.00,,,0.00,LWC V2.00 B2112,2013-10-17 06:53:00,
2013-10-17 02:58:00,60.5,60.5,29.85,South,172,0.0,0.0,100,0.00,,,0.00,LWC V2.00 B2112,2013-10-17 06:58:00,
2013-10-17 03:03:00,60.5,60.5,29.85,South,172,0.0,0.0,100,0.00,,,0.00,LWC V2.00 B2112,2013-10-17 07:03:00,
2013-10-17 03:08:00,60.5,60.5,29.85,South,172,0.0,0.0,100,0.00,,,0.00,LWC V2.00 B2112,2013-10-17 07:08:00,
2013-10-17 03:13:00,60.5,60.5,29.84,South,172,0.0,0.0,100,0.00,,,0.00,LWC V2.00 B2112,2013-10-17 07:13:00,
2013-10-17 03:18:00,60.5,60.5,29.84,South,172,0.0,0.0,100,0.00,,,0.00,LWC V2.00 B2112,2013-10-17 07:18:00,
2013-10-17 03:23:00,60.4,60.4,29.84,South,172,0.0,0.0,100,0.00,,,0.00,LWC V2.00 B2112,2013-10-17 07:23:00,
2013-10-17 03:28:00,60.4,60.4,29.84,South,172,0.0,0.0,100,0.00,,,0.00,LWC V2.00 B2112,2013-10-17 07:28:00,
2013-10-17 03:33:00,60.4,60.4,29.84,South,172,0.0,0.0,100,0.00,,,0.00,LWC V2.00 B2112,2013-10-17 07:33:00,
2013-10-17 03:38:00,60.2,60.2,29.84,South,172,0.0,0.0,100,0.00,,,0.00,LWC V2.00 B2112,2013-10-17 07:38:00,
2013-10-17 03:43:00,60.2,60.2,29.84,South,172,0.0,0.0,100,0.00,,,0.00,LWC V2.00 B2112,2013-10-17 07:43:00,
2013-10-17 03:48:00,60.1,60.1,29.84,South,172,0.0,0.0,100,0.00,,,0.00,LWC V2.00 B2112,2013-10-17 07:48:00,
2013-10-17 03:53:00,59.9,59.9,29.84,South,172,0.0,0.0,100,0.00,,,0.00,LWC V2.00 B2112,2013-10-17 07:53:00,
2013-10-17 03:58:00,59.8,59.5,29.84,South,172,0.0,0.0,99,0.00,,,0.00,LWC V2.00 B2112,2013-10-17 07:58:00,
2013-10-17 04:03:00,59.6,59.6,29.84,South,172,0.0,0.0,100,0.00,,,0.00,LWC V2.00 B2112,2013-10-17 08:03:00,
2013-10-17 04:08:00,59.5,59.2,29.84,South,172,0.0,0.0,99,0.00,,,0.00,LWC V2.00 B2112,2013-10-17 08:08:00,
2013-10-17 04:13:00,59.3,59.0,29.84,South,172,0.0,0.0,99,0.00,,,0.00,LWC V2.00 B2112,2013-10-17 08:13:00,
2013-10-17 04:18:00,59.2,59.2,29.84,South,172,0.0,0.0,100,0.00,,,0.00,LWC V2.00 B2112,2013-10-17 08:18:00,
2013-10-17 04:23:00,59.0,58.7,29.84,South,172,0.0,0.0,99,0.00,,,0.00,LWC V2.00 B2112,2013-10-17 08:23:00,
2013-10-17 04:28:00,58.9,58.6,29.84,South,172,0.0,0.0,99,0.00,,,0.00,LWC V2.00 B2112,2013-10-17 08:28:00,
2013-10-17 04:33:00,58.7,58.4,29.84,South,172,0.0,0.0,99,0.00,,,0.00,LWC V2.00 B2112,2013-10-17 08:33:00,
2013-10-17 04:38:00,58.6,58.3,29.84,South,172,0.0,0.0,99,0.00,,,0.00,LWC V2.00 B2112,2013-10-17 08:38:00,
2013-10-17 04:43:00,58.6,58.3,29.84,South,172,0.0,0.0,99,0.00,,,0.00,LWC V2.00 B2112,2013-10-17 08:43:00,
2013-10-17 04:48:00,58.4,58.1,29.84,South,172,0.0,0.0,99,0.00,,,0.00,LWC V2.00 B2112,2013-10-17 08:48:00,
2013-10-17 04:53:00,58.4,58.4,29.84,South,172,0.0,0.0,100,0.00,,,0.00,LWC V2.00 B2112,2013-10-17 08:53:00,
2013-10-17 04:58:00,58.4,58.4,29.84,South,172,0.0,0.0,100,0.00,,,0.00,LWC V2.00 B2112,2013-10-17 08:58:00,
2013-10-17 05:03:00,58.6,58.6,29.84,South,172,0.0,0.0,100,0.00,,,0.00,LWC V2.00 B2112,2013-10-17 09:03:00,
2013-10-17 05:08:00,58.6,58.6,29.84,South,172,0.0,0.0,100,0.00,,,0.00,LWC V2.00 B2112,2013-10-17 09:08:00,
2013-10-17 05:13:00,58.7,58.7,29.84,South,172,0.0,0.0,100,0.00,,,0.00,LWC V2.00 B2112,2013-10-17 09:13:00,
2013-10-17 05:18:00,58.9,58.9,29.84,South,172,0.0,0.0,100,0.00,,,0.00,LWC V2.00 B2112,2013-10-17 09:18:00,
2013-10-17 05:23:00,59.0,59.0,29.84,South,172,0.0,0.0,100,0.00,,,0.00,LWC V2.00 B2112,2013-10-17 09:23:00,
2013-10-17 05:28:00,59.0,59.0,29.84,South,172,0.0,0.0,100,0.00,,,0.00,LWC V2.00 B2112,2013-10-17 09:28:00,
2013-10-17 05:33:00,59.0,59.0,29.84,South,172,0.0,0.0,100,0.00,,,0.00,LWC V2.00 B2112,2013-10-17 09:33:00,
2013-10-17 05:38:00,59.0,59.0,29.84,South,172,0.0,0.0,100,0.00,,,0.00,LWC V2.00 B2112,2013-10-17 09:38:00,
2013-10-17 05:43:00,58.9,58.9,29.84,South,172,0.0,0.0,100,0.00,,,0.00,LWC V2.00 B2112,2013-10-17 09:43:00,
2013-10-17 05:48:00,58.7,58.7,29.84,South,172,0.0,0.0,100,0.00,,,0.00,LWC V2.00 B2112,2013-10-17 09:48:00,
2013-10-17 05:53:00,58.7,58.7,29.84,South,172,0.0,0.0,100,0.00,,,0.00,LWC V2.00 B2112,2013-10-17 09:53:00,
2013-10-17 05:58:00,58.7,58.7,29.84,South,172,0.0,0.0,100,0.00,,,0.00,LWC V2.00 B2112,2013-10-17 09:58:00,
2013-10-17 06:03:00,58.6,58.6,29.84,South,172,0.0,0.0,100,0.00,,,0.00,LWC V2.00 B2112,2013-10-17 10:03:00,
2013-10-17 06:08:00,58.7,58.7,29.84,South,172,0.0,0.0,100,0.00,,,0.00,LWC V2.00 B2112,2013-10-17 10:08:00,
2013-10-17 06:13:00,58.7,58.7,29.84,South,172,0.0,0.0,100,0.00,,,0.00,LWC V2.00 B2112,2013-10-17 10:13:00,
2013-10-17 06:18:00,58.7,58.7,29.84,South,172,0.0,0.0,100,0.00,,,0.00,LWC V2.00 B2112,2013-10-17 10:18:00,
2013-10-17 06:23:00,58.9,58.9,29.84,South,172,0.0,0.0,100,0.00,,,0.00,LWC V2.00 B2112,2013-10-17 10:23:00,
2013-10-17 06:28:00,58.9,58.9,29.85,South,172,0.0,0.0,100,0.00,,,0.00,LWC V2.00 B2112,2013-10-17 10:28:00,
2013-10-17 06:33:00,59.0,59.0,29.85,South,172,0.0,0.0,100,0.00,,,0.00,LWC V2.00 B2112,2013-10-17 10:33:00,
2013-10-17 06:38:00,59.2,59.2,29.85,South,172,0.0,0.0,100,0.00,,,0.00,LWC V2.00 B2112,2013-10-17 10:38:00,
2013-10-17 06:43:00,59.2,59.2,29.85,South,172,0.0,0.0,100,0.00,,,0.00,LWC V2.00 B2112,2013-10-17 10:43:00,
2013-10-17 06:48:00,59.3,59.3,29.85,South,172,0.0,0.0,100,0.00,,,0.00,LWC V2.00 B2112,2013-10-17 10:48:00,
2013-10-17 06:53:00,59.3,59.3,29.85,South,172,0.0,0.0,100,0.00,,,0.00,LWC V2.00 B2112,2013-10-17 10:53:00,
2013-10-17 06:58:00,59.3,59.3,29.85,South,172,0.0,0.0,100,0.00,,,0.00,LWC V2.00 B2112,2013-10-17 10:58:00,
2013-10-17 07:03:00,59.3,59.3,29.85,South,172,0.0,0.0,100,0.00,,,0.00,LWC V2.00 B2112,2013-10-17 11:03:00,
2013-10-17 07:08:00,59.3,59.3,29.85,South,172,0.0,0.0,100,0.00,,,0.00,LWC V2.00 B2112,2013-10-17 11:08:00,
2013-10-17 07:13:00,59.3,59.3,29.85,South,172,0.0,0.0,100,0.00,,,0.00,LWC V2.00 B2112,2013-10-17 11:13:00,
2013-10-17 07:18:00,59.3,59.3,29.85,South,172,0.0,0.0,100,0.00,,,0.00,LWC V2.00 B2112,2013-10-17 11:18:00,
2013-10-17 07:23:00,59.3,59.3,29.85,South,172,0.0,0.0,100,0.00,,,0.00,LWC V2.00 B2112,2013-10-17 11:23:00,
2013-10-17 07:28:00,59.5,59.5,29.85,South,172,0.0,0.0,100,0.00,,,0.00,LWC V2.00 B2112,2013-10-17 11:28:00,
2013-10-17 07:33:00,59.6,59.6,29.85,South,172,0.0,0.0,100,0.00,,,0.00,LWC V2.00 B2112,2013-10-17 11:33:00,
2013-10-17 07:38:00,59.6,59.6,29.85,South,172,0.0,0.0,100,0.00,,,0.01,LWC V2.00 B2112,2013-10-17 11:38:00,
2013-10-17 07:43:00,59.6,59.6,29.85,South,172,0.0,0.0,100,0.00,,,0.01,LWC V2.00 B2112,2013-10-17 11:43:00,
2013-10-17 07:48:00,59.6,59.6,29.85,South,172,0.0,0.0,100,0.00,,,0.01,LWC V2.00 B2112,2013-10-17 11:48:00,
2013-10-17 07:53:00,59.8,59.8,29.85,South,172,0.0,0.0,100,0.00,,,0.01,LWC V2.00 B2112,2013-10-17 11:53:00,
2013-10-17 07:58:00,59.9,59.9,29.85,South,172,0.0,0.0,100,0.00,,,0.01,LWC V2.00 B2112,2013-10-17 11:58:00,
2013-10-17 08:03:00,60.1,60.1,29.85,South,172,0.0,0.0,100,0.00,,,0.01,LWC V2.00 B2112,2013-10-17 12:03:00,
2013-10-17 08:08:00,60.2,60.2,29.85,South,172,0.0,0.0,100,0.00,,,0.01,LWC V2.00 B2112,2013-10-17 12:08:00,
2013-10-17 08:13:00,60.4,60.4,29.85,South,172,0.0,0.0,100,0.00,,,0.01,LWC V2.00 B2112,2013-10-17 12:13:00,
2013-10-17 08:18:00,60.7,60.7,29.85,South,172,0.0,0.0,100,0.00,,,0.01,LWC V2.00 B2112,2013-10-17 12:18:00,
2013-10-17 08:23:00,60.7,60.7,29.85,South,172,0.0,0.0,100,0.00,,,0.01,LWC V2.00 B2112,2013-10-17 12:23:00,
2013-10-17 08:28:00,60.9,60.9,29.86,South,172,0.0,0.0,100,0.00,,,0.01,LWC V2.00 B2112,2013-10-17 12:28:00,
2013-10-17 08:33:00,61.0,61.0,29.86,South,172,0.0,0.0,100,0.00,,,0.01,LWC V2.00 B2112,2013-10-17 12:33:00,
2013-10-17 08:38:00,61.2,61.2,29.86,South,172,0.0,0.0,100,0.00,,,0.01,LWC V2.00 B2112,2013-10-17 12:38:00,
2013-10-17 08:43:00,61.3,61.3,29.86,South,172,0.0,0.0,100,0.00,,,0.01,LWC V2.00 B2112,2013-10-17 12:43:00,
2013-10-17 08:48:00,61.5,61.5,29.86,South,172,0.0,0.0,100,0.00,,,0.01,LWC V2.00 B2112,2013-10-17 12:48:00,
2013-10-17 08:53:00,61.6,61.6,29.86,South,172,0.0,0.0,100,0.00,,,0.01,LWC V2.00 B2112,2013-10-17 12:53:00,
2013-10-17 08:58:00,61.6,61.6,29.86,South,172,0.0,0.0,100,0.00,,,0.01,LWC V2.00 B2112,2013-10-17 12:58:00,
2013-10-17 09:03:00,61.8,61.8,29.86,South,172,0.0,0.0,100,0.00,,,0.01,LWC V2.00 B2112,2013-10-17 13:03:00,
2013-10-17 09:08:00,61.8,61.8,29.86,South,172,0.0,0.0,100,0.00,,,0.01,LWC V2.00 B2112,2013-10-17 13:08:00,
2013-10-17 09:13:00,62.0,62.0,29.86,South,172,0.0,0.0,100,0.00,,,0.01,LWC V2.00 B2112,2013-10-17 13:13:00,
2013-10-17 09:18:00,62.0,62.0,29.86,South,172,0.0,0.0,100,0.00,,,0.01,LWC V2.00 B2112,2013-10-17 13:18:00,
2013-10-17 09:23:00,62.1,62.1,29.86,South,172,0.0,0.0,100,0.00,,,0.01,LWC V2.00 B2112,2013-10-17 13:23:00,
2013-10-17 09:28:00,62.1,62.1,29.86,South,172,0.0,0.0,100,0.00,,,0.01,LWC V2.00 B2112,2013-10-17 13:28:00,
2013-10-17 09:33:00,62.7,62.7,29.86,South,172,0.0,0.0,100,0.00,,,0.01,LWC V2.00 B2112,2013-10-17 13:33:00,
2013-10-17 09:38:00,63.1,63.1,29.86,SW,225,0.0,0.0,100,0.00,,,0.01,LWC V2.00 B2112,2013-10-17 13:38:00,
2013-10-17 09:43:00,63.7,63.4,29.86,South,190,0.0,0.0,99,0.00,,,0.01,LWC V2.00 B2112,2013-10-17 13:43:00,
2013-10-17 09:48:00,64.0,63.4,29.86,WNW,288,0.0,0.0,98,0.00,,,0.01,LWC V2.00 B2112,2013-10-17 13:48:00,
2013-10-17 09:53:00,64.2,63.3,29.86,SW,216,0.0,0.0,97,0.00,,,0.01,LWC V2.00 B2112,2013-10-17 13:53:00,
2013-10-17 09:58:00,64.5,63.3,29.85,SW,236,0.0,0.0,96,0.00,,,0.01,LWC V2.00 B2112,2013-10-17 13:58:00,
2013-10-17 10:03:00,65.0,63.8,29.85,SW,233,0.0,0.0,96,0.00,,,0.01,LWC V2.00 B2112,2013-10-17 14:03:00,
2013-10-17 10:08:00,65.3,63.2,29.85,WNW,290,0.0,1.0,93,0.00,,,0.01,LWC V2.00 B2112,2013-10-17 14:08:00,
2013-10-17 10:13:00,65.6,63.5,29.86,SW,227,0.0,0.0,93,0.00,,,0.01,LWC V2.00 B2112,2013-10-17 14:13:00,
2013-10-17 10:18:00,66.0,63.6,29.86,SW,227,0.0,0.0,92,0.00,,,0.01,LWC V2.00 B2112,2013-10-17 14:18:00,
2013-10-17 10:23:00,66.3,63.9,29.86,SW,234,0.0,0.0,92,0.00,,,0.01,LWC V2.00 B2112,2013-10-17 14:23:00,
2013-10-17 10:28:00,66.6,63.6,29.86,West,263,0.0,0.0,90,0.00,,,0.01,LWC V2.00 B2112,2013-10-17 14:28:00,
2013-10-17 10:33:00,67.1,64.1,29.86,SW,219,0.0,0.0,90,0.00,,,0.01,LWC V2.00 B2112,2013-10-17 14:33:00,
2013-10-17 10:38:00,67.4,63.4,29.86,South,184,0.0,0.0,87,0.00,,,0.01,LWC V2.00 B2112,2013-10-17 14:38:00,
2013-10-17 10:43:00,67.8,63.1,29.86,SSE,156,0.0,0.0,85,0.00,,,0.01,LWC V2.00 B2112,2013-10-17 14:43:00,
2013-10-17 10:48:00,68.1,63.4,29.86,WSW,243,0.0,0.0,85,0.00,,,0.01,LWC V2.00 B2112,2013-10-17 14:48:00,
2013-10-17 10:53:00,68.4,63.0,29.86,SW,235,0.0,0.0,83,0.00,,,0.01,LWC V2.00 B2112,2013-10-17 14:53:00,
2013-10-17 10:58:00,68.4,63.0,29.86,South,191,0.0,0.0,83,0.00,,,0.01,LWC V2.00 B2112,2013-10-17 14:58:00,
2013-10-17 11:03:00,68.6,63.2,29.86,SSE,166,0.0,0.0,83,0.00,,,0.01,LWC V2.00 B2112,2013-10-17 15:03:00,
2013-10-17 11:08:00,68.8,63.4,29.86,SW,215,0.0,0.0,83,0.00,,,0.01,LWC V2.00 B2112,2013-10-17 15:08:00,
2013-10-17 11:13:00,68.9,63.2,29.86,WNW,294,0.0,0.0,82,0.00,,,0.01,LWC V2.00 B2112,2013-10-17 15:13:00,
2013-10-17 11:18:00,69.1,63.4,29.86,WNW,293,0.0,0.0,82,0.00,,,0.01,LWC V2.00 B2112,2013-10-17 15:18:00,
2013-10-17 11:23:00,69.1,63.7,29.86,WNW,293,0.0,0.0,83,0.00,,,0.01,LWC V2.00 B2112,2013-10-17 15:23:00,
2013-10-17 11:28:00,69.1,63.7,29.85,South,178,0.0,0.0,83,0.00,,,0.01,LWC V2.00 B2112,2013-10-17 15:28:00,
2013-10-17 11:33:00,69.3,63.6,29.85,South,178,0.0,0.0,82,0.00,,,0.01,LWC V2.00 B2112,2013-10-17 15:33:00,
2013-10-17 11:38:00,69.4,63.7,29.85,WSW,241,0.0,0.0,82,0.00,,,0.01,LWC V2.00 B2112,2013-10-17 15:38:00,
2013-10-17 11:43:00,69.9,63.4,29.85,SSE,152,0.0,0.0,80,0.00,,,0.01,LWC V2.00 B2112,2013-10-17 15:43:00,
2013-10-17 11:48:00,70.6,63.8,29.85,ESE,117,0.0,0.0,79,0.00,,,0.01,LWC V2.00 B2112,2013-10-17 15:48:00,
2013-10-17 11:53:00,71.5,63.9,29.85,SW,227,0.0,0.0,77,0.00,,,0.01,LWC V2.00 B2112,2013-10-17 15:53:00,
2013-10-17 11:58:00,72.1,63.0,29.83,ESE,103,0.0,0.0,73,0.00,,,0.01,LWC V2.00 B2112,2013-10-17 15:58:00,
2013-10-17 12:08:00,72.7,63.5,29.83,SSW,202,0.0,0.0,73,0.00,,,0.01,LWC V2.00 B2112,2013-10-17 16:08:00,
2013-10-17 12:13:00,72.8,62.8,29.83,WSW,254,0.0,0.0,71,0.00,,,0.01,LWC V2.00 B2112,2013-10-17 16:13:00,
2013-10-17 12:18:00,73.2,63.2,29.83,WSW,243,0.0,0.0,71,0.00,,,0.01,LWC V2.00 B2112,2013-10-17 16:18:00,
2013-10-17 12:23:00,73.5,62.7,29.83,WNW,301,1.0,5.0,69,0.00,,,0.01,LWC V2.00 B2112,2013-10-17 16:23:00,
2013-10-17 12:28:00,73.5,62.3,29.83,SE,133,0.0,4.0,68,0.00,,,0.01,LWC V2.00 B2112,2013-10-17 16:28:00,
2013-10-17 12:33:00,73.5,62.7,29.83,South,175,0.0,2.0,69,0.00,,,0.01,LWC V2.00 B2112,2013-10-17 16:33:00,
2013-10-17 12:38:00,73.7,63.7,29.83,WSW,252,0.0,0.0,71,0.00,,,0.01,LWC V2.00 B2112,2013-10-17 16:38:00,
2013-10-17 12:43:00,73.3,62.1,29.83,SSW,195,0.0,0.0,68,0.00,,,0.01,LWC V2.00 B2112,2013-10-17 16:43:00,
2013-10-17 12:48:00,73.9,63.1,29.83,North,356,0.0,0.0,69,0.00,,,0.01,LWC V2.00 B2112,2013-10-17 16:48:00,
2013-10-17 12:53:00,74.6,62.9,29.83,WSW,250,0.0,4.0,67,0.00,,,0.01,LWC V2.00 B2112,2013-10-17 16:53:00,
2013-10-17 12:58:00,75.3,62.3,29.82,SW,221,4.0,5.0,64,0.00,,,0.01,LWC V2.00 B2112,2013-10-17 16:58:00,
2013-10-17 13:03:00,75.4,63.2,29.82,WSW,251,0.0,0.0,66,0.00,,,0.01,LWC V2.00 B2112,2013-10-17 17:03:00,
2013-10-17 13:08:00,74.9,61.9,29.82,SSW,203,0.0,0.0,64,0.00,,,0.01,LWC V2.00 B2112,2013-10-17 17:08:00,
2013-10-17 13:18:00,73.9,62.2,29.82,SSW,206,0.0,0.0,67,0.00,,,0.01,LWC V2.00 B2112,2013-10-17 17:18:00,
2013-10-17 13:23:00,73.5,61.9,29.82,West,266,0.0,2.0,67,0.00,,,0.01,LWC V2.00 B2112,2013-10-17 17:23:00,
2013-10-17 13:28:00,73.2,62.0,29.81,SW,226,0.0,0.0,68,0.00,,,0.01,LWC V2.00 B2112,2013-10-17 17:28:00,
2013-10-17 13:33:00,73.0,62.2,29.81,South,188,0.0,0.0,69,0.00,,,0.01,LWC V2.00 B2112,2013-10-17 17:33:00,
2013-10-17 13:38:00,73.2,62.8,29.81,South,181,0.0,0.0,70,0.00,,,0.01,LWC V2.00 B2112,2013-10-17 17:38:00,
2013-10-17 13:43:00,73.7,62.9,29.80,SSE,167,0.0,0.0,69,0.00,,,0.01,LWC V2.00 B2112,2013-10-17 17:43:00,
2013-10-17 13:48:00,73.7,61.6,29.80,WNW,295,0.0,4.0,66,0.00,,,0.01,LWC V2.00 B2112,2013-10-17 17:48:00,
2013-10-17 13:53:00,73.5,63.1,29.80,SSE,156,0.0,0.0,70,0.00,,,0.01,LWC V2.00 B2112,2013-10-17 17:53:00,
2013-10-17 13:58:00,73.5,62.7,29.80,SW,214,0.0,0.0,69,0.00,,,0.01,LWC V2.00 B2112,2013-10-17 17:58:00,
2013-10-17 14:03:00,73.3,62.5,29.80,WSW,244,0.0,1.0,69,0.00,,,0.01,LWC V2.00 B2112,2013-10-17 18:03:00,
2013-10-17 14:08:00,73.3,62.5,29.80,SSW,208,0.0,1.0,69,0.00,,,0.01,LWC V2.00 B2112,2013-10-17 18:08:00,
2013-10-17 14:13:00,73.0,63.0,29.80,SSW,206,0.0,0.0,71,0.00,,,0.01,LWC V2.00 B2112,2013-10-17 18:13:00,
2013-10-17 14:18:00,72.8,62.4,29.80,SSW,207,0.0,0.0,70,0.00,,,0.01,LWC V2.00 B2112,2013-10-17 18:18:00,
2013-10-17 14:23:00,72.8,62.4,29.80,WNW,302,0.0,0.0,70,0.00,,,0.01,LWC V2.00 B2112,2013-10-17 18:23:00,
2013-10-17 14:28:00,72.8,62.4,29.79,West,264,0.0,1.0,70,0.00,,,0.01,LWC V2.00 B2112,2013-10-17 18:28:00,
2013-10-17 14:33:00,72.7,63.1,29.79,West,262,0.0,0.0,72,0.00,,,0.01,LWC V2.00 B2112,2013-10-17 18:33:00,
2013-10-17 14:38:00,72.8,62.4,29.79,West,274,0.0,0.0,70,0.00,,,0.01,LWC V2.00 B2112,2013-10-17 18:38:00,
2013-10-17 14:48:00,72.8,62.4,29.79,WSW,237,0.0,0.0,70,0.00,,,0.01,LWC V2.00 B2112,2013-10-17 18:48:00,
2013-10-17 14:53:00,73.0,63.4,29.79,SW,236,0.0,0.0,72,0.00,,,0.01,LWC V2.00 B2112,2013-10-17 18:53:00,
2013-10-17 14:58:00,73.3,63.7,29.79,NNW,338,0.0,0.0,72,0.00,,,0.01,LWC V2.00 B2112,2013-10-17 18:58:00,
2013-10-17 15:03:00,73.3,63.3,29.79,East,93,0.0,0.0,71,0.00,,,0.01,LWC V2.00 B2112,2013-10-17 19:03:00,
2013-10-17 15:08:00,73.3,63.3,29.79,WSW,255,0.0,0.0,71,0.00,,,0.01,LWC V2.00 B2112,2013-10-17 19:08:00,
2013-10-17 15:13:00,73.0,62.6,29.79,South,171,0.0,0.0,70,0.00,,,0.01,LWC V2.00 B2112,2013-10-17 19:13:00,
2013-10-17 15:18:00,73.0,62.6,29.79,SSW,194,0.0,0.0,70,0.00,,,0.01,LWC V2.00 B2112,2013-10-17 19:18:00,
2013-10-17 15:23:00,72.8,62.4,29.79,SSW,207,0.0,0.0,70,0.00,,,0.01,LWC V2.00 B2112,2013-10-17 19:23:00,
2013-10-17 15:28:00,72.8,63.2,29.78,WNW,285,0.0,0.0,72,0.00,,,0.01,LWC V2.00 B2112,2013-10-17 19:28:00,
2013-10-17 15:33:00,72.8,63.6,29.78,SSW,201,0.0,0.0,73,0.00,,,0.01,LWC V2.00 B2112,2013-10-17 19:33:00,
2013-10-17 15:38:00,73.0,64.2,29.78,SSW,211,0.0,0.0,74,0.00,,,0.01,LWC V2.00 B2112,2013-10-17 19:38:00,
2013-10-17 15:43:00,73.5,63.5,29.77,SSW,213,0.0,0.0,71,0.00,,,0.01,LWC V2.00 B2112,2013-10-17 19:43:00,
2013-10-17 15:48:00,73.5,62.7,29.77,South,174,0.0,0.0,69,0.00,,,0.01,LWC V2.00 B2112,2013-10-17 19:48:00,
2013-10-17 15:53:00,73.3,62.9,29.77,West,281,0.0,0.0,70,0.00,,,0.01,LWC V2.00 B2112,2013-10-17 19:53:00,
2013-10-17 15:58:00,73.2,63.2,29.78,WSW,254,0.0,0.0,71,0.00,,,0.01,LWC V2.00 B2112,2013-10-17 19:58:00,
2013-10-17 16:03:00,73.0,63.0,29.78,West,277,0.0,0.0,71,0.00,,,0.01,LWC V2.00 B2112,2013-10-17 20:03:00,
2013-10-17 16:13:00,72.8,63.6,29.77,South,181,0.0,0.0,73,0.00,,,0.01,LWC V2.00 B2112,2013-10-17 20:13:00,
2013-10-17 16:18:00,72.5,63.3,29.77,SSW,204,0.0,0.0,73,0.00,,,0.01,LWC V2.00 B2112,2013-10-17 20:18:00,
2013-10-17 16:23:00,72.3,63.1,29.77,SSE,150,0.0,0.0,73,0.00,,,0.01,LWC V2.00 B2112,2013-10-17 20:23:00,
2013-10-17 16:28:00,72.0,63.6,29.78,WSW,250,0.0,0.0,75,0.00,,,0.01,LWC V2.00 B2112,2013-10-17 20:28:00,
2013-10-17 16:33:00,71.8,63.1,29.78,South,172,0.0,0.0,74,0.00,,,0.01,LWC V2.00 B2112,2013-10-17 20:33:00,
2013-10-17 16:38:00,71.6,63.2,29.78,South,172,0.0,0.0,75,0.00,,,0.01,LWC V2.00 B2112,2013-10-17 20:38:00,
2013-10-17 16:43:00,71.6,64.0,29.77,South,172,0.0,0.0,77,0.00,,,0.01,LWC V2.00 B2112,2013-10-17 20:43:00,
2013-10-17 16:48:00,71.6,63.6,29.77,South,172,0.0,0.0,76,0.00,,,0.01,LWC V2.00 B2112,2013-10-17 20:48:00,
2013-10-17 16:53:00,71.6,63.6,29.77,South,172,0.0,0.0,76,0.00,,,0.01,LWC V2.00 B2112,2013-10-17 20:53:00,
2013-10-17 16:58:00,71.5,63.5,29.77,South,172,0.0,0.0,76,0.00,,,0.01,LWC V2.00 B2112,2013-10-17 20:58:00,
2013-10-17 17:03:00,71.3,63.3,29.77,South,172,0.0,0.0,76,0.00,,,0.01,LWC V2.00 B2112,2013-10-17 21:03:00,
2013-10-17 17:08:00,71.3,63.7,29.77,South,172,0.0,0.0,77,0.00,,,0.01,LWC V2.00 B2112,2013-10-17 21:08:00,
2013-10-17 17:13:00,71.1,63.9,29.77,South,172,0.0,0.0,78,0.00,,,0.01,LWC V2.00 B2112,2013-10-17 21:13:00,
2013-10-17 17:18:00,71.1,63.5,29.77,South,172,0.0,0.0,77,0.00,,,0.01,LWC V2.00 B2112,2013-10-17 21:18:00,
2013-10-17 17:23:00,70.9,63.7,29.77,South,172,0.0,0.0,78,0.00,,,0.01,LWC V2.00 B2112,2013-10-17 21:23:00,
2013-10-17 17:28:00,70.9,63.7,29.76,South,172,0.0,0.0,78,0.00,,,0.01,LWC V2.00 B2112,2013-10-17 21:28:00,
2013-10-17 17:38:00,70.8,64.0,29.76,South,172,0.0,0.0,79,0.00,,,0.01,LWC V2.00 B2112,2013-10-17 21:38:00,
2013-10-17 17:43:00,70.8,64.3,29.76,South,172,0.0,0.0,80,0.00,,,0.01,LWC V2.00 B2112,2013-10-17 21:43:00,
2013-10-17 17:48:00,70.6,63.8,29.76,SSE,165,0.0,0.0,79,0.00,,,0.01,LWC V2.00 B2112,2013-10-17 21:48:00,
2013-10-17 17:53:00,70.6,63.8,29.76,SSE,165,0.0,0.0,79,0.00,,,0.01,LWC V2.00 B2112,2013-10-17 21:53:00,
2013-10-17 17:58:00,70.6,63.8,29.76,SSE,165,0.0,0.0,79,0.00,,,0.01,LWC V2.00 B2112,2013-10-17 21:58:00,
2013-10-17 18:03:00,70.6,64.1,29.76,SSE,165,0.0,0.0,80,0.00,,,0.01,LWC V2.00 B2112,2013-10-17 22:03:00,
2013-10-17 18:08:00,70.4,63.9,29.76,SSE,165,0.0,0.0,80,0.00,,,0.01,LWC V2.00 B2112,2013-10-17 22:08:00,
2013-10-17 18:13:00,70.4,63.6,29.76,SW,214,0.0,0.0,79,0.00,,,0.01,LWC V2.00 B2112,2013-10-17 22:13:00,
2013-10-17 18:18:00,70.4,63.9,29.76,SW,214,0.0,0.0,80,0.00,,,0.01,LWC V2.00 B2112,2013-10-17 22:18:00,
2013-10-17 18:23:00,70.4,63.9,29.76,SSE,148,0.0,0.0,80,0.00,,,0.01,LWC V2.00 B2112,2013-10-17 22:23:00,
2013-10-17 18:28:00,70.3,63.8,29.76,SSE,149,0.0,0.0,80,0.00,,,0.01,LWC V2.00 B2112,2013-10-17 22:28:00,
2013-10-17 18:33:00,70.3,63.8,29.76,SSE,148,0.0,0.0,80,0.00,,,0.01,LWC V2.00 B2112,2013-10-17 22:33:00,
2013-10-17 18:38:00,70.1,63.6,29.76,SSE,148,0.0,0.0,80,0.00,,,0.01,LWC V2.00 B2112,2013-10-17 22:38:00,
2013-10-17 18:43:00,70.1,64.0,29.76,SSE,148,0.0,0.0,81,0.00,,,0.01,LWC V2.00 B2112,2013-10-17 22:43:00,
2013-10-17 18:48:00,70.1,64.0,29.76,South,178,0.0,0.0,81,0.00,,,0.01,LWC V2.00 B2112,2013-10-17 22:48:00,
2013-10-17 18:53:00,70.1,63.6,29.76,SSE,157,0.0,0.0,80,0.00,,,0.01,LWC V2.00 B2112,2013-10-17 22:53:00,
2013-10-17 18:58:00,70.1,63.6,29.76,WNW,297,0.0,0.0,80,0.00,,,0.01,LWC V2.00 B2112,2013-10-17 22:58:00,
2013-10-17 19:03:00,70.1,63.6,29.76,SSW,212,0.0,0.0,80,0.00,,,0.01,LWC V2.00 B2112,2013-10-17 23:03:00,
2013-10-17 19:08:00,70.1,63.6,29.76,SSE,153,0.0,0.0,80,0.00,,,0.01,LWC V2.00 B2112,2013-10-17 23:08:00,
2013-10-17 19:13:00,69.9,63.8,29.76,SE,143,0.0,0.0,81,0.00,,,0.01,LWC V2.00 B2112,2013-10-17 23:13:00,
2013-10-17 19:18:00,69.8,63.7,29.76,WSW,254,0.0,0.0,81,0.00,,,0.01,LWC V2.00 B2112,2013-10-17 23:18:00,
2013-10-17 19:23:00,69.8,63.7,29.76,NW,315,0.0,0.0,81,0.00,,,0.01,LWC V2.00 B2112,2013-10-17 23:23:00,
2013-10-17 19:28:00,69.8,64.0,29.76,SW,231,0.0,0.0,82,0.00,,,0.01,LWC V2.00 B2112,2013-10-17 23:28:00,
2013-10-17 19:33:00,69.6,63.9,29.76,SW,232,0.0,0.0,82,0.00,,,0.01,LWC V2.00 B2112,2013-10-17 23:33:00,
2013-10-17 19:38:00,69.6,63.9,29.76,SW,215,0.0,0.0,82,0.00,,,0.01,LWC V2.00 B2112,2013-10-17 23:38:00,
2013-10-17 19:43:00,69.4,63.7,29.76,SW,224,0.0,0.0,82,0.00,,,0.01,LWC V2.00 B2112,2013-10-17 23:43:00,
2013-10-17 19:48:00,69.4,63.7,29.76,WSW,247,0.0,0.0,82,0.00,,,0.01,LWC V2.00 B2112,2013-10-17 23:48:00,
2013-10-17 19:53:00,69.4,64.0,29.76,SW,232,0.0,0.0,83,0.00,,,0.01,LWC V2.00 B2112,2013-10-17 23:53:00,
2013-10-17 19:58:00,69.3,63.9,29.76,SSW,192,0.0,0.0,83,0.00,,,0.01,LWC V2.00 B2112,2013-10-17 23:58:00,
2013-10-17 20:03:00,69.1,63.7,29.76,SSW,192,0.0,0.0,83,0.00,,,0.01,LWC V2.00 B2112,2013-10-18 00:03:00,
2013-10-17 20:08:00,69.1,64.1,29.76,SSW,192,0.0,0.0,84,0.00,,,0.01,LWC V2.00 B2112,2013-10-18 00:08:00,
2013-10-17 20:13:00,69.1,64.4,29.76,WSW,238,0.0,0.0,85,0.00,,,0.01,LWC V2.00 B2112,2013-10-18 00:13:00,
2013-10-17 20:18:00,68.9,64.2,29.76,SW,224,0.0,0.0,85,0.00,,,0.01,LWC V2.00 B2112,2013-10-18 00:18:00,
2013-10-17 20:23:00,68.8,64.4,29.76,West,264,0.0,0.0,86,0.00,,,0.01,LWC V2.00 B2112,2013-10-18 00:23:00,
2013-10-17 20:28:00,68.8,64.4,29.76,SW,223,0.0,0.0,86,0.00,,,0.01,LWC V2.00 B2112,2013-10-18 00:28:00,
2013-10-17 20:33:00,68.6,64.6,29.76,West,273,0.0,0.0,87,0.00,,,0.01,LWC V2.00 B2112,2013-10-18 00:33:00,
2013-10-17 20:38:00,68.6,64.6,29.76,South,184,0.0,0.0,87,0.00,,,0.01,LWC V2.00 B2112,2013-10-18 00:38:00,
2013-10-17 20:43:00,68.4,64.4,29.77,South,184,0.0,0.0,87,0.00,,,0.01,LWC V2.00 B2112,2013-10-18 00:43:00,
2013-10-17 20:48:00,68.4,64.4,29.77,South,184,0.0,0.0,87,0.00,,,0.01,LWC V2.00 B2112,2013-10-18 00:48:00,
2013-10-17 20:53:00,68.3,64.6,29.77,WSW,257,0.0,0.0,88,0.00,,,0.01,LWC V2.00 B2112,2013-10-18 00:53:00,
2013-10-17 21:03:00,68.1,64.4,29.77,SW,227,0.0,0.0,88,0.00,,,0.01,LWC V2.00 B2112,2013-10-18 01:03:00,
2013-10-17 21:08:00,68.1,64.7,29.77,SW,217,0.0,0.0,89,0.00,,,0.01,LWC V2.00 B2112,2013-10-18 01:08:00,
2013-10-17 21:13:00,68.1,64.7,29.78,South,179,0.0,0.0,89,0.00,,,0.01,LWC V2.00 B2112,2013-10-18 01:13:00,
2013-10-17 21:18:00,68.1,64.4,29.78,West,279,0.0,0.0,88,0.00,,,0.01,LWC V2.00 B2112,2013-10-18 01:18:00,
2013-10-17 21:23:00,68.1,64.4,29.78,WNW,284,0.0,0.0,88,0.00,,,0.01,LWC V2.00 B2112,2013-10-18 01:23:00,
2013-10-17 21:28:00,68.3,64.6,29.78,NW,310,0.0,0.0,88,0.00,,,0.01,LWC V2.00 B2112,2013-10-18 01:28:00,
2013-10-17 21:33:00,68.3,64.3,29.78,WSW,242,0.0,0.0,87,0.00,,,0.01,LWC V2.00 B2112,2013-10-18 01:33:00,
2013-10-17 21:38:00,68.3,64.3,29.78,WSW,242,0.0,0.0,87,0.00,,,0.01,LWC V2.00 B2112,2013-10-18 01:38:00,
2013-10-17 21:43:00,68.4,64.4,29.78,WSW,249,0.0,0.0,87,0.00,,,0.01,LWC V2.00 B2112,2013-10-18 01:43:00,
2013-10-17 21:48:00,68.4,64.4,29.78,South,184,0.0,0.0,87,0.00,,,0.01,LWC V2.00 B2112,2013-10-18 01:48:00,
2013-10-17 21:53:00,68.4,64.4,29.78,NNW,330,0.0,0.0,87,0.00,,,0.01,LWC V2.00 B2112,2013-10-18 01:53:00,
2013-10-17 21:58:00,68.4,64.4,29.79,WSW,250,0.0,0.0,87,0.00,,,0.01,LWC V2.00 B2112,2013-10-18 01:58:00,
2013-10-17 22:03:00,68.4,64.4,29.79,SSW,212,0.0,0.0,87,0.00,,,0.01,LWC V2.00 B2112,2013-10-18 02:03:00,
2013-10-17 22:08:00,68.4,64.4,29.79,SSW,212,0.0,0.0,87,0.00,,,0.01,LWC V2.00 B2112,2013-10-18 02:08:00,
2013-10-17 22:13:00,68.4,64.4,29.79,SSE,165,0.0,0.0,87,0.00,,,0.01,LWC V2.00 B2112,2013-10-18 02:13:00,
2013-10-17 22:18:00,68.4,64.4,29.79,SW,236,0.0,0.0,87,0.00,,,0.01,LWC V2.00 B2112,2013-10-18 02:18:00,
2013-10-17 22:23:00,68.3,64.3,29.79,South,190,0.0,0.0,87,0.00,,,0.01,LWC V2.00 B2112,2013-10-18 02:23:00,
2013-10-17 22:28:00,68.3,64.3,29.80,SW,217,0.0,0.0,87,0.00,,,0.01,LWC V2.00 B2112,2013-10-18 02:28:00,
2013-10-17 22:33:00,68.3,64.3,29.80,WNW,289,0.0,0.0,87,0.00,,,0.01,LWC V2.00 B2112,2013-10-18 02:33:00,
2013-10-17 22:38:00,68.3,64.3,29.80,SSW,198,0.0,0.0,87,0.00,,,0.01,LWC V2.00 B2112,2013-10-18 02:38:00,
2013-10-17 22:43:00,68.3,64.3,29.80,West,264,0.0,0.0,87,0.00,,,0.01,LWC V2.00 B2112,2013-10-18 02:43:00,
2013-10-17 22:48:00,68.4,64.4,29.80,SW,229,0.0,0.0,87,0.00,,,0.01,LWC V2.00 B2112,2013-10-18 02:48:00,
2013-10-17 22:53:00,68.4,64.4,29.80,SE,131,0.0,0.0,87,0.00,,,0.01,LWC V2.00 B2112,2013-10-18 02:53:00,
2013-10-17 22:58:00,68.4,64.4,29.79,SW,235,0.0,0.0,87,0.00,,,0.01,LWC V2.00 B2112,2013-10-18 02:58:00,
2013-10-17 23:03:00,68.4,64.4,29.79,NW,311,0.0,0.0,87,0.00,,,0.01,LWC V2.00 B2112,2013-10-18 03:03:00,
2013-10-17 23:08:00,68.4,64.4,29.79,ESE,117,0.0,0.0,87,0.00,,,0.01,LWC V2.00 B2112,2013-10-18 03:08:00,
2013-10-17 23:13:00,68.4,64.4,29.79,West,281,0.0,0.0,87,0.00,,,0.01,LWC V2.00 B2112,2013-10-18 03:13:00,
2013-10-17 23:18:00,68.4,64.4,29.79,West,276,0.0,1.0,87,0.00,,,0.01,LWC V2.00 B2112,2013-10-18 03:18:00,
2013-10-17 23:23:00,68.4,64.4,29.79,SSW,197,0.0,0.0,87,0.00,,,0.01,LWC V2.00 B2112,2013-10-18 03:23:00,
2013-10-17 23:28:00,68.4,64.4,29.79,WNW,297,0.0,0.0,87,0.00,,,0.01,LWC V2.00 B2112,2013-10-18 03:28:00,
2013-10-17 23:33:00,68.4,64.4,29.79,NW,325,0.0,0.0,87,0.00,,,0.01,LWC V2.00 B2112,2013-10-18 03:33:00,
2013-10-17 23:38:00,68.3,64.3,29.79,SW,215,0.0,2.0,87,0.00,,,0.01,LWC V2.00 B2112,2013-10-18 03:38:00,
2013-10-17 23:43:00,68.3,64.6,29.79,SSW,198,0.0,0.0,88,0.00,,,0.01,LWC V2.00 B2112,2013-10-18 03:43:00,
2013-10-17 23:48:00,68.1,64.4,29.79,SSW,205,0.0,0.0,88,0.00,,,0.01,LWC V2.00 B2112,2013-10-18 03:48:00,
2013-10-17 23:53:00,67.9,64.2,29.79,SE,146,0.0,0.0,88,0.00,,,0.01,LWC V2.00 B2112,2013-10-18 03:53:00,
2013-10-17 23:58:00,67.8,64.4,29.79,SE,146,0.0,0.0,89,0.00,,,0.01,LWC V2.00 B2112,2013-10-18 03:58:00,